createdAt,value
2022-09-28T00:03:08.821Z,9.02
2022-09-28T00:08:08.746Z,8.95
2022-09-28T00:13:08.721Z,8.91
2022-09-28T00:18:08.699Z,8.84
2022-09-28T00:23:08.659Z,8.86
2022-09-28T00:28:08.407Z,8.84
2022-09-28T00:33:08.360Z,8.91
2022-09-28T00:38:08.292Z,8.83
2022-09-28T00:43:08.245Z,8.84
2022-09-28T00:48:08.233Z,8.79
2022-09-28T00:53:11.723Z,8.74
2022-09-28T00:58:08.112Z,8.77
2022-09-28T01:03:08.065Z,8.76
2022-09-28T01:08:08.091Z,8.70
2022-09-28T01:13:13.970Z,8.76
2022-09-28T01:18:07.840Z,8.80
2022-09-28T01:23:07.793Z,8.81
2022-09-28T01:28:07.723Z,8.84
2022-09-28T01:33:07.681Z,8.83
2022-09-28T01:38:07.638Z,8.79
2022-09-28T01:43:07.668Z,8.74
2022-09-28T01:48:07.506Z,8.73
2022-09-28T01:53:07.547Z,8.71
2022-09-28T01:58:07.399Z,8.65
2022-09-28T02:03:07.356Z,8.70
2022-09-28T02:08:07.285Z,8.66
2022-09-28T02:13:07.249Z,8.71
2022-09-28T02:18:07.194Z,8.77
2022-09-28T02:23:07.154Z,8.76
2022-09-28T02:28:08.151Z,8.76
2022-09-28T02:33:07.087Z,8.61
2022-09-28T02:38:07.024Z,8.71
2022-09-28T02:43:06.959Z,8.70
2022-09-28T02:48:06.879Z,8.73
2022-09-28T02:53:06.822Z,8.74
2022-09-28T02:58:06.750Z,8.68
2022-09-28T03:03:06.692Z,8.74
2022-09-28T03:08:06.643Z,8.65
2022-09-28T03:13:06.600Z,8.59
2022-09-28T03:18:06.675Z,8.63
2022-09-28T03:23:23.939Z,8.66
2022-09-28T03:28:07.462Z,8.76
2022-09-28T03:33:06.408Z,8.77
2022-09-28T03:38:06.397Z,8.62
2022-09-28T03:43:06.240Z,8.62
2022-09-28T03:48:06.204Z,8.48
2022-09-28T03:53:06.136Z,8.58
2022-09-28T03:58:06.061Z,8.61
2022-09-28T04:03:06.012Z,8.63
2022-09-28T04:08:06.013Z,8.61
2022-09-28T04:13:09.347Z,8.50
2022-09-28T04:18:05.842Z,8.59
2022-09-28T04:23:05.817Z,8.62
2022-09-28T04:28:05.798Z,8.56
2022-09-28T04:33:05.697Z,8.65
2022-09-28T04:38:05.651Z,8.66
2022-09-28T04:43:05.565Z,8.68
2022-09-28T04:48:05.516Z,8.58
2022-09-28T04:53:05.490Z,8.62
2022-09-28T04:58:05.505Z,8.70
2022-09-28T05:03:05.353Z,8.65
2022-09-28T05:08:05.477Z,8.65
2022-09-28T05:13:05.337Z,8.73
2022-09-28T05:18:05.259Z,8.71
2022-09-28T05:23:05.155Z,8.71
2022-09-28T05:28:05.106Z,8.70
2022-09-28T05:33:05.020Z,8.65
2022-09-28T05:38:04.969Z,8.63
2022-09-28T05:43:05.004Z,8.73
2022-09-28T05:48:04.900Z,8.73
2022-09-28T05:53:04.842Z,8.83
2022-09-28T05:58:04.769Z,8.84
2022-09-28T06:03:08.723Z,8.92
2022-09-28T06:08:04.650Z,8.86
2022-09-28T06:13:04.560Z,8.91
2022-09-28T06:18:04.519Z,8.98
2022-09-28T06:23:04.435Z,8.99
2022-09-28T06:28:04.388Z,9.13
2022-09-28T06:33:04.322Z,9.04
2022-09-28T06:38:04.347Z,9.10
2022-09-28T06:43:04.338Z,8.99
2022-09-28T06:48:04.247Z,9.13
2022-09-28T06:53:05.145Z,9.17
2022-09-28T06:58:04.122Z,9.28
2022-09-28T07:03:04.088Z,9.31
2022-09-28T07:08:03.942Z,9.23
2022-09-28T07:13:03.899Z,9.17
2022-09-28T07:18:04.338Z,9.02
2022-09-28T07:23:15.476Z,9.14
2022-09-28T07:28:04.732Z,9.20
2022-09-28T07:33:04.690Z,9.23
2022-09-28T07:38:03.652Z,9.15
2022-09-28T07:43:03.601Z,9.28
2022-09-28T07:48:03.636Z,9.18
2022-09-28T07:53:03.480Z,9.29
2022-09-28T07:58:03.414Z,9.17
2022-09-28T08:03:03.359Z,9.11
2022-09-28T08:08:04.288Z,9.23
2022-09-28T08:13:03.306Z,9.33
2022-09-28T08:18:03.238Z,9.35
2022-09-28T08:23:03.113Z,9.31
2022-09-28T08:28:03.103Z,9.31
2022-09-28T08:33:03.023Z,9.24
2022-09-28T08:38:02.968Z,9.54
2022-09-28T08:43:02.894Z,9.54
2022-09-28T08:48:02.920Z,9.74
2022-09-28T08:53:02.839Z,9.68
2022-09-28T08:58:02.734Z,9.78
2022-09-28T09:03:02.845Z,9.91
2022-09-28T09:08:02.803Z,9.90
2022-09-28T09:13:02.733Z,9.83
2022-09-28T09:18:02.698Z,10.23
2022-09-28T09:23:02.477Z,10.56
2022-09-28T09:28:02.438Z,10.89
2022-09-28T09:33:02.368Z,10.89
2022-09-28T09:38:02.312Z,10.73
2022-09-28T09:43:02.237Z,11.19
2022-09-28T09:48:02.201Z,11.37
2022-09-28T09:53:02.193Z,11.33
2022-09-28T09:58:02.171Z,11.09
2022-09-28T10:03:02.032Z,11.44
2022-09-28T10:08:02.052Z,11.58
2022-09-28T10:13:01.931Z,11.52
2022-09-28T10:18:01.838Z,11.33
2022-09-28T10:23:01.895Z,11.17
2022-09-28T10:28:02.002Z,11.11
2022-09-28T10:33:01.849Z,11.39
2022-09-28T10:38:01.664Z,11.46
2022-09-28T10:43:01.672Z,11.60
2022-09-28T10:48:01.576Z,11.82
2022-09-28T10:53:01.554Z,12.59
2022-09-28T10:58:01.458Z,13.01
2022-09-28T11:03:01.450Z,12.67
2022-09-28T11:08:01.343Z,12.31
2022-09-28T11:13:01.465Z,12.02
2022-09-28T11:18:01.203Z,11.94
2022-09-28T11:23:01.287Z,12.21
2022-09-28T11:28:01.097Z,12.74
2022-09-28T11:33:01.256Z,12.62
2022-09-28T11:38:00.994Z,12.50
2022-09-28T11:43:01.078Z,12.42
2022-09-28T11:48:01.905Z,12.27
2022-09-28T11:53:00.841Z,12.53
2022-09-28T11:58:00.794Z,12.89
2022-09-28T12:03:00.870Z,12.75
2022-09-28T12:08:00.719Z,12.67
2022-09-28T12:13:00.796Z,12.86
2022-09-28T12:18:00.796Z,12.95
2022-09-28T12:23:00.683Z,13.04
2022-09-28T12:28:00.422Z,13.04
2022-09-28T12:33:00.411Z,13.10
2022-09-28T12:38:01.409Z,13.00
2022-09-28T12:43:00.303Z,13.20
2022-09-28T12:48:00.203Z,13.19
2022-09-28T12:53:02.992Z,13.45
2022-09-28T12:58:00.148Z,13.71
2022-09-28T13:03:01.170Z,13.63
2022-09-28T13:08:00.000Z,13.70
2022-09-28T13:13:00.062Z,13.84
2022-09-28T13:17:59.955Z,13.99
2022-09-28T13:22:59.894Z,14.00
2022-09-28T13:27:59.824Z,14.09
2022-09-28T13:32:59.780Z,14.21
2022-09-28T13:37:59.641Z,14.28
2022-09-28T13:42:59.599Z,14.15
2022-09-28T13:47:59.520Z,14.46
2022-09-28T13:52:59.519Z,14.29
2022-09-28T13:57:59.418Z,14.09
2022-09-28T14:02:59.416Z,13.81
2022-09-28T14:07:59.317Z,13.73
2022-09-28T14:12:59.289Z,13.79
2022-09-28T14:17:59.196Z,13.51
2022-09-28T14:22:59.122Z,13.17
2022-09-28T14:27:59.076Z,13.10
2022-09-28T14:32:59.098Z,12.89
2022-09-28T14:37:59.007Z,12.68
2022-09-28T14:42:58.958Z,12.57
2022-09-28T14:47:58.900Z,12.56
2022-09-28T14:52:58.788Z,12.49
2022-09-28T14:57:58.952Z,12.14
2022-09-28T15:02:58.835Z,12.20
2022-09-28T15:07:58.751Z,12.10
2022-09-28T15:12:58.668Z,11.99
2022-09-28T15:18:00.626Z,11.95
2022-09-28T15:22:58.555Z,11.85
2022-09-28T15:27:58.440Z,11.72
2022-09-28T15:32:59.042Z,11.35
2022-09-28T15:37:58.336Z,11.10
2022-09-28T15:42:59.358Z,10.78
2022-09-28T15:47:58.219Z,10.76
2022-09-28T15:52:58.145Z,10.89
2022-09-28T15:57:58.086Z,10.92
2022-09-28T16:02:58.047Z,10.88
2022-09-28T16:07:57.978Z,10.94
2022-09-28T16:12:57.919Z,10.88
2022-09-28T16:17:57.844Z,10.79
2022-09-28T16:22:57.797Z,10.63
2022-09-28T16:27:57.732Z,10.73
2022-09-28T16:32:57.666Z,10.78
2022-09-28T16:37:57.697Z,10.74
2022-09-28T16:42:57.657Z,10.73
2022-09-28T16:47:57.575Z,10.68
2022-09-28T16:53:00.091Z,10.61
2022-09-28T16:57:57.445Z,10.48
2022-09-28T17:02:57.390Z,10.40
2022-09-28T17:07:57.295Z,10.45
2022-09-28T17:12:57.245Z,10.42
2022-09-28T17:17:57.276Z,10.41
2022-09-28T17:22:57.223Z,10.32
2022-09-28T17:27:57.148Z,10.34
2022-09-28T17:32:57.079Z,10.29
2022-09-28T17:37:57.010Z,10.27
2022-09-28T17:42:57.019Z,10.23
2022-09-28T17:47:56.871Z,10.20
2022-09-28T17:52:56.839Z,10.15
2022-09-28T17:57:56.747Z,10.14
2022-09-28T18:02:56.766Z,10.14
2022-09-28T18:07:56.756Z,10.12
2022-09-28T18:12:56.670Z,10.14
2022-09-28T18:17:56.539Z,10.07
2022-09-28T18:22:56.525Z,9.97
2022-09-28T18:27:56.426Z,9.96
2022-09-28T18:32:56.372Z,9.74
2022-09-28T18:37:56.328Z,9.72
2022-09-28T18:42:56.277Z,9.66
2022-09-28T18:47:56.190Z,9.54
2022-09-28T18:52:56.143Z,9.40
2022-09-28T18:57:56.061Z,9.29
2022-09-28T19:02:56.104Z,9.21
2022-09-28T19:07:55.980Z,9.17
2022-09-28T19:12:55.965Z,9.08
2022-09-28T19:17:55.881Z,9.04
2022-09-28T19:22:55.929Z,9.05
2022-09-28T19:27:55.730Z,8.98
2022-09-28T19:32:55.693Z,8.94
2022-09-28T19:37:55.638Z,8.84
2022-09-28T19:42:55.601Z,8.80
2022-09-28T19:47:59.295Z,8.66
2022-09-28T19:52:55.531Z,8.61
2022-09-28T19:57:55.439Z,8.53
2022-09-28T20:02:55.510Z,8.48
2022-09-28T20:07:55.467Z,8.45
2022-09-28T20:12:55.267Z,8.37
2022-09-28T20:17:55.195Z,8.29
2022-09-28T20:22:55.132Z,8.19
2022-09-28T20:27:55.157Z,8.10
2022-09-28T20:32:55.072Z,8.07
2022-09-28T20:37:54.989Z,7.95
2022-09-28T20:42:54.932Z,7.85
2022-09-28T20:47:54.979Z,7.75
2022-09-28T20:52:54.910Z,7.74
2022-09-28T20:57:54.829Z,7.71
2022-09-28T21:02:54.811Z,7.67
2022-09-28T21:07:54.660Z,7.64
2022-09-28T21:12:54.587Z,7.67
2022-09-28T21:17:54.550Z,7.58
2022-09-28T21:22:54.494Z,7.52
2022-09-28T21:27:54.535Z,7.45
2022-09-28T21:32:54.473Z,7.35
2022-09-28T21:37:54.438Z,7.31
2022-09-28T21:42:54.266Z,7.25
2022-09-28T21:47:54.204Z,7.27
2022-09-28T21:52:54.164Z,7.21
2022-09-28T21:57:54.107Z,7.21
2022-09-28T22:02:54.072Z,7.17
2022-09-28T22:07:54.062Z,7.12
2022-09-28T22:12:55.031Z,7.06
2022-09-28T22:17:53.890Z,7.09
2022-09-28T22:22:53.807Z,7.02
2022-09-28T22:27:53.921Z,6.99
2022-09-28T22:33:02.727Z,7.02
2022-09-28T22:37:53.725Z,6.95
2022-09-28T22:42:53.658Z,6.87
2022-09-28T22:47:53.560Z,6.79
2022-09-28T22:52:53.498Z,6.73
2022-09-28T22:57:53.450Z,6.70
2022-09-28T23:02:53.620Z,6.73
2022-09-28T23:07:53.347Z,6.77
2022-09-28T23:12:53.275Z,6.76
2022-09-28T23:17:53.243Z,6.67
2022-09-28T23:22:53.187Z,6.56
2022-09-28T23:27:53.143Z,6.51
2022-09-28T23:32:53.147Z,6.52
2022-09-28T23:37:53.121Z,6.44
2022-09-28T23:42:53.063Z,6.36
2022-09-28T23:47:52.896Z,6.30
2022-09-28T23:52:53.265Z,6.27
2022-09-28T23:57:52.775Z,6.25
